sensor_id;sensor_type;location;lat;lon;timestamp;P1;durP1;ratioP1;P2;durP2;ratioP2
18140;SDS011;9196;49.194;12.526;2022-07-15T00:02:24;3.37;;;3.07;;
18140;SDS011;9196;49.194;12.526;2022-07-15T00:04:51;3.00;;;2.33;;
18140;SDS011;9196;49.194;12.526;2022-07-15T00:07:18;6.13;;;2.33;;
18140;SDS011;9196;49.194;12.526;2022-07-15T00:09:46;4.30;;;2.63;;
18140;SDS011;9196;49.194;12.526;2022-07-15T00:12:30;9.33;;;2.70;;
18140;SDS011;9196;49.194;12.526;2022-07-15T00:14:59;4.93;;;3.03;;
18140;SDS011;9196;49.194;12.526;2022-07-15T00:17:26;3.03;;;2.47;;
18140;SDS011;9196;49.194;12.526;2022-07-15T00:19:53;6.30;;;2.23;;
18140;SDS011;9196;49.194;12.526;2022-07-15T00:22:21;6.40;;;2.53;;
18140;SDS011;9196;49.194;12.526;2022-07-15T00:24:48;2.70;;;1.97;;
18140;SDS011;9196;49.194;12.526;2022-07-15T00:27:15;12.40;;;2.80;;
18140;SDS011;9196;49.194;12.526;2022-07-15T00:29:42;6.87;;;2.97;;
18140;SDS011;9196;49.194;12.526;2022-07-15T00:32:11;5.70;;;2.80;;
18140;SDS011;9196;49.194;12.526;2022-07-15T00:34:38;7.33;;;2.30;;
18140;SDS011;9196;49.194;12.526;2022-07-15T00:37:05;7.50;;;2.37;;
18140;SDS011;9196;49.194;12.526;2022-07-15T00:39:33;6.30;;;2.77;;
18140;SDS011;9196;49.194;12.526;2022-07-15T00:42:00;2.30;;;2.20;;
18140;SDS011;9196;49.194;12.526;2022-07-15T00:44:27;3.90;;;2.33;;
18140;SDS011;9196;49.194;12.526;2022-07-15T00:46:54;2.53;;;2.07;;
18140;SDS011;9196;49.194;12.526;2022-07-15T00:49:23;2.77;;;2.50;;
18140;SDS011;9196;49.194;12.526;2022-07-15T00:51:52;5.47;;;2.30;;
18140;SDS011;9196;49.194;12.526;2022-07-15T00:54:21;8.87;;;2.87;;
18140;SDS011;9196;49.194;12.526;2022-07-15T00:56:50;6.43;;;2.20;;
18140;SDS011;9196;49.194;12.526;2022-07-15T00:59:18;2.30;;;2.10;;
18140;SDS011;9196;49.194;12.526;2022-07-15T01:01:46;3.50;;;1.97;;
18140;SDS011;9196;49.194;12.526;2022-07-15T01:04:13;4.63;;;2.07;;
18140;SDS011;9196;49.194;12.526;2022-07-15T01:06:42;5.90;;;2.30;;
18140;SDS011;9196;49.194;12.526;2022-07-15T01:09:09;5.57;;;2.87;;
18140;SDS011;9196;49.194;12.526;2022-07-15T01:11:37;5.47;;;2.70;;
18140;SDS011;9196;49.194;12.526;2022-07-15T01:14:04;4.43;;;2.37;;
18140;SDS011;9196;49.194;12.526;2022-07-15T01:16:32;3.23;;;2.90;;
18140;SDS011;9196;49.194;12.526;2022-07-15T01:18:59;9.27;;;2.93;;
18140;SDS011;9196;49.194;12.526;2022-07-15T01:21:28;6.90;;;3.13;;
18140;SDS011;9196;49.194;12.526;2022-07-15T01:23:55;11.40;;;3.20;;
18140;SDS011;9196;49.194;12.526;2022-07-15T01:26:22;4.27;;;2.60;;
18140;SDS011;9196;49.194;12.526;2022-07-15T01:28:49;6.50;;;2.63;;
18140;SDS011;9196;49.194;12.526;2022-07-15T01:31:16;4.93;;;2.77;;
18140;SDS011;9196;49.194;12.526;2022-07-15T01:33:43;5.27;;;2.40;;
18140;SDS011;9196;49.194;12.526;2022-07-15T01:36:11;4.67;;;3.30;;
18140;SDS011;9196;49.194;12.526;2022-07-15T01:38:39;5.87;;;2.30;;
18140;SDS011;9196;49.194;12.526;2022-07-15T01:41:06;6.20;;;2.90;;
18140;SDS011;9196;49.194;12.526;2022-07-15T01:43:33;8.53;;;2.60;;
18140;SDS011;9196;49.194;12.526;2022-07-15T01:46:00;3.50;;;3.20;;
18140;SDS011;9196;49.194;12.526;2022-07-15T01:48:28;10.00;;;3.50;;
18140;SDS011;9196;49.194;12.526;2022-07-15T01:51:13;4.13;;;2.47;;
18140;SDS011;9196;49.194;12.526;2022-07-15T01:53:41;13.10;;;3.63;;
18140;SDS011;9196;49.194;12.526;2022-07-15T01:56:08;7.93;;;2.90;;
18140;SDS011;9196;49.194;12.526;2022-07-15T01:58:36;3.60;;;2.67;;
18140;SDS011;9196;49.194;12.526;2022-07-15T02:01:03;6.63;;;3.30;;
18140;SDS011;9196;49.194;12.526;2022-07-15T02:03:30;11.30;;;3.23;;
18140;SDS011;9196;49.194;12.526;2022-07-15T02:05:58;4.70;;;2.60;;
18140;SDS011;9196;49.194;12.526;2022-07-15T02:08:25;4.53;;;2.87;;
18140;SDS011;9196;49.194;12.526;2022-07-15T02:10:53;4.63;;;2.50;;
18140;SDS011;9196;49.194;12.526;2022-07-15T02:13:21;5.80;;;3.40;;
18140;SDS011;9196;49.194;12.526;2022-07-15T02:15:48;2.73;;;2.53;;
18140;SDS011;9196;49.194;12.526;2022-07-15T02:18:15;4.07;;;2.70;;
18140;SDS011;9196;49.194;12.526;2022-07-15T02:20:42;3.63;;;2.60;;
18140;SDS011;9196;49.194;12.526;2022-07-15T02:23:10;4.20;;;2.60;;
18140;SDS011;9196;49.194;12.526;2022-07-15T02:25:37;3.80;;;2.63;;
18140;SDS011;9196;49.194;12.526;2022-07-15T02:28:06;5.30;;;2.63;;
18140;SDS011;9196;49.194;12.526;2022-07-15T02:30:34;2.93;;;2.70;;
18140;SDS011;9196;49.194;12.526;2022-07-15T02:33:02;7.73;;;2.73;;
18140;SDS011;9196;49.194;12.526;2022-07-15T02:35:30;8.60;;;3.20;;
18140;SDS011;9196;49.194;12.526;2022-07-15T02:37:57;3.90;;;2.70;;
18140;SDS011;9196;49.194;12.526;2022-07-15T02:40:25;5.17;;;2.43;;
18140;SDS011;9196;49.194;12.526;2022-07-15T02:42:53;2.87;;;2.67;;
18140;SDS011;9196;49.194;12.526;2022-07-15T02:45:23;3.30;;;2.53;;
18140;SDS011;9196;49.194;12.526;2022-07-15T02:47:51;5.90;;;2.90;;
18140;SDS011;9196;49.194;12.526;2022-07-15T02:50:18;3.07;;;2.60;;
18140;SDS011;9196;49.194;12.526;2022-07-15T02:52:46;4.23;;;3.00;;
18140;SDS011;9196;49.194;12.526;2022-07-15T02:55:13;12.80;;;3.60;;
18140;SDS011;9196;49.194;12.526;2022-07-15T02:57:41;7.60;;;3.80;;
18140;SDS011;9196;49.194;12.526;2022-07-15T03:00:09;8.40;;;3.30;;
18140;SDS011;9196;49.194;12.526;2022-07-15T03:02:38;6.47;;;2.97;;
18140;SDS011;9196;49.194;12.526;2022-07-15T03:05:06;6.67;;;3.27;;
18140;SDS011;9196;49.194;12.526;2022-07-15T03:07:34;8.70;;;2.53;;
18140;SDS011;9196;49.194;12.526;2022-07-15T03:10:01;4.70;;;2.93;;
18140;SDS011;9196;49.194;12.526;2022-07-15T03:12:28;3.80;;;3.00;;
18140;SDS011;9196;49.194;12.526;2022-07-15T03:14:55;14.73;;;5.10;;
18140;SDS011;9196;49.194;12.526;2022-07-15T03:17:22;4.47;;;3.20;;
18140;SDS011;9196;49.194;12.526;2022-07-15T03:19:51;3.83;;;3.00;;
18140;SDS011;9196;49.194;12.526;2022-07-15T03:22:20;8.53;;;3.20;;
18140;SDS011;9196;49.194;12.526;2022-07-15T03:24:47;8.73;;;2.70;;
18140;SDS011;9196;49.194;12.526;2022-07-15T03:27:15;10.73;;;3.70;;
18140;SDS011;9196;49.194;12.526;2022-07-15T03:29:42;5.30;;;2.97;;
18140;SDS011;9196;49.194;12.526;2022-07-15T03:32:09;3.53;;;3.27;;
18140;SDS011;9196;49.194;12.526;2022-07-15T03:34:36;12.23;;;3.97;;
18140;SDS011;9196;49.194;12.526;2022-07-15T03:37:05;4.53;;;3.23;;
18140;SDS011;9196;49.194;12.526;2022-07-15T03:39:32;3.73;;;2.90;;
18140;SDS011;9196;49.194;12.526;2022-07-15T03:41:59;3.00;;;2.73;;
18140;SDS011;9196;49.194;12.526;2022-07-15T03:44:26;5.70;;;3.07;;
18140;SDS011;9196;49.194;12.526;2022-07-15T03:46:54;6.97;;;4.13;;
18140;SDS011;9196;49.194;12.526;2022-07-15T03:49:21;9.50;;;2.80;;
18140;SDS011;9196;49.194;12.526;2022-07-15T03:51:48;7.57;;;2.93;;
18140;SDS011;9196;49.194;12.526;2022-07-15T03:54:17;5.50;;;2.93;;
18140;SDS011;9196;49.194;12.526;2022-07-15T03:56:44;3.70;;;3.40;;
18140;SDS011;9196;49.194;12.526;2022-07-15T03:59:12;6.90;;;3.50;;
18140;SDS011;9196;49.194;12.526;2022-07-15T04:01:40;3.87;;;3.33;;
18140;SDS011;9196;49.194;12.526;2022-07-15T04:04:07;5.90;;;3.60;;
18140;SDS011;9196;49.194;12.526;2022-07-15T04:06:35;6.63;;;3.47;;
18140;SDS011;9196;49.194;12.526;2022-07-15T04:09:02;5.33;;;3.20;;
18140;SDS011;9196;49.194;12.526;2022-07-15T04:11:31;6.10;;;3.43;;
18140;SDS011;9196;49.194;12.526;2022-07-15T04:13:58;12.90;;;4.57;;
18140;SDS011;9196;49.194;12.526;2022-07-15T04:16:25;10.73;;;4.00;;
18140;SDS011;9196;49.194;12.526;2022-07-15T04:18:53;3.90;;;3.00;;
18140;SDS011;9196;49.194;12.526;2022-07-15T04:21:21;3.23;;;2.73;;
18140;SDS011;9196;49.194;12.526;2022-07-15T04:23:48;5.83;;;3.40;;
18140;SDS011;9196;49.194;12.526;2022-07-15T04:26:15;4.60;;;3.63;;
18140;SDS011;9196;49.194;12.526;2022-07-15T04:28:43;3.67;;;3.43;;
18140;SDS011;9196;49.194;12.526;2022-07-15T04:31:11;9.60;;;3.30;;
18140;SDS011;9196;49.194;12.526;2022-07-15T04:33:38;4.80;;;3.43;;
18140;SDS011;9196;49.194;12.526;2022-07-15T04:36:05;10.20;;;3.20;;
18140;SDS011;9196;49.194;12.526;2022-07-15T04:38:32;4.67;;;3.90;;
18140;SDS011;9196;49.194;12.526;2022-07-15T04:40:59;8.50;;;4.53;;
18140;SDS011;9196;49.194;12.526;2022-07-15T04:43:27;7.23;;;4.00;;
18140;SDS011;9196;49.194;12.526;2022-07-15T04:45:55;4.07;;;3.67;;
18140;SDS011;9196;49.194;12.526;2022-07-15T04:48:22;6.23;;;3.57;;
18140;SDS011;9196;49.194;12.526;2022-07-15T04:51:07;7.17;;;4.10;;
18140;SDS011;9196;49.194;12.526;2022-07-15T04:53:34;4.97;;;3.67;;
18140;SDS011;9196;49.194;12.526;2022-07-15T04:56:01;7.33;;;4.00;;
18140;SDS011;9196;49.194;12.526;2022-07-15T04:58:28;3.10;;;2.90;;
18140;SDS011;9196;49.194;12.526;2022-07-15T05:00:57;9.47;;;3.90;;
18140;SDS011;9196;49.194;12.526;2022-07-15T05:03:24;5.40;;;3.10;;
18140;SDS011;9196;49.194;12.526;2022-07-15T05:05:51;8.23;;;3.90;;
18140;SDS011;9196;49.194;12.526;2022-07-15T05:08:18;6.73;;;4.30;;
18140;SDS011;9196;49.194;12.526;2022-07-15T05:10:46;12.73;;;4.20;;
18140;SDS011;9196;49.194;12.526;2022-07-15T05:13:13;3.77;;;3.40;;
18140;SDS011;9196;49.194;12.526;2022-07-15T05:15:40;8.43;;;3.67;;
18140;SDS011;9196;49.194;12.526;2022-07-15T05:18:09;4.87;;;3.73;;
18140;SDS011;9196;49.194;12.526;2022-07-15T05:20:36;6.73;;;3.23;;
18140;SDS011;9196;49.194;12.526;2022-07-15T05:23:03;4.33;;;3.93;;
18140;SDS011;9196;49.194;12.526;2022-07-15T05:25:30;5.67;;;4.30;;
18140;SDS011;9196;49.194;12.526;2022-07-15T05:27:58;3.83;;;3.47;;
18140;SDS011;9196;49.194;12.526;2022-07-15T05:30:25;3.67;;;3.37;;
18140;SDS011;9196;49.194;12.526;2022-07-15T05:32:52;4.20;;;3.87;;
18140;SDS011;9196;49.194;12.526;2022-07-15T05:35:20;7.70;;;4.30;;
18140;SDS011;9196;49.194;12.526;2022-07-15T05:37:47;5.17;;;2.93;;
18140;SDS011;9196;49.194;12.526;2022-07-15T05:40:14;8.57;;;3.23;;
18140;SDS011;9196;49.194;12.526;2022-07-15T05:42:42;7.43;;;4.03;;
18140;SDS011;9196;49.194;12.526;2022-07-15T05:45:09;5.27;;;3.30;;
18140;SDS011;9196;49.194;12.526;2022-07-15T05:47:37;9.30;;;3.77;;
18140;SDS011;9196;49.194;12.526;2022-07-15T05:50:04;4.70;;;3.13;;
18140;SDS011;9196;49.194;12.526;2022-07-15T05:52:33;6.30;;;2.83;;
18140;SDS011;9196;49.194;12.526;2022-07-15T05:55:01;3.23;;;2.93;;
18140;SDS011;9196;49.194;12.526;2022-07-15T05:57:29;6.37;;;2.93;;
18140;SDS011;9196;49.194;12.526;2022-07-15T05:59:56;7.27;;;3.10;;
18140;SDS011;9196;49.194;12.526;2022-07-15T06:02:23;2.87;;;2.57;;
18140;SDS011;9196;49.194;12.526;2022-07-15T06:04:50;4.83;;;2.70;;
18140;SDS011;9196;49.194;12.526;2022-07-15T06:07:18;4.37;;;2.57;;
18140;SDS011;9196;49.194;12.526;2022-07-15T06:09:46;8.80;;;3.10;;
18140;SDS011;9196;49.194;12.526;2022-07-15T06:12:15;4.87;;;3.27;;
18140;SDS011;9196;49.194;12.526;2022-07-15T06:14:42;5.97;;;2.67;;
18140;SDS011;9196;49.194;12.526;2022-07-15T06:17:09;3.13;;;2.70;;
18140;SDS011;9196;49.194;12.526;2022-07-15T06:19:36;2.83;;;2.60;;
18140;SDS011;9196;49.194;12.526;2022-07-15T06:22:04;7.00;;;2.53;;
18140;SDS011;9196;49.194;12.526;2022-07-15T06:24:31;6.60;;;3.17;;
18140;SDS011;9196;49.194;12.526;2022-07-15T06:27:00;2.27;;;2.17;;
18140;SDS011;9196;49.194;12.526;2022-07-15T06:29:27;2.80;;;2.50;;
18140;SDS011;9196;49.194;12.526;2022-07-15T06:31:54;2.40;;;2.20;;
18140;SDS011;9196;49.194;12.526;2022-07-15T06:34:21;6.23;;;3.10;;
18140;SDS011;9196;49.194;12.526;2022-07-15T06:36:48;3.17;;;2.50;;
18140;SDS011;9196;49.194;12.526;2022-07-15T06:39:16;6.00;;;2.30;;
18140;SDS011;9196;49.194;12.526;2022-07-15T06:41:43;2.93;;;1.90;;
18140;SDS011;9196;49.194;12.526;2022-07-15T06:44:11;3.50;;;2.20;;
18140;SDS011;9196;49.194;12.526;2022-07-15T06:46:38;5.43;;;2.10;;
18140;SDS011;9196;49.194;12.526;2022-07-15T06:49:06;9.87;;;3.37;;
18140;SDS011;9196;49.194;12.526;2022-07-15T06:51:33;2.47;;;2.27;;
18140;SDS011;9196;49.194;12.526;2022-07-15T06:54:00;5.50;;;3.00;;
18140;SDS011;9196;49.194;12.526;2022-07-15T06:56:27;2.70;;;1.60;;
18140;SDS011;9196;49.194;12.526;2022-07-15T06:58:55;7.97;;;2.10;;
18140;SDS011;9196;49.194;12.526;2022-07-15T07:01:23;2.80;;;1.70;;
18140;SDS011;9196;49.194;12.526;2022-07-15T07:03:50;4.00;;;1.90;;
18140;SDS011;9196;49.194;12.526;2022-07-15T07:06:17;5.80;;;3.10;;
18140;SDS011;9196;49.194;12.526;2022-07-15T07:08:45;2.90;;;2.00;;
18140;SDS011;9196;49.194;12.526;2022-07-15T07:11:13;5.70;;;2.23;;
18140;SDS011;9196;49.194;12.526;2022-07-15T07:13:40;1.73;;;1.63;;
18140;SDS011;9196;49.194;12.526;2022-07-15T07:16:07;3.80;;;2.13;;
18140;SDS011;9196;49.194;12.526;2022-07-15T07:18:36;3.13;;;2.23;;
18140;SDS011;9196;49.194;12.526;2022-07-15T07:21:03;4.33;;;2.17;;
18140;SDS011;9196;49.194;12.526;2022-07-15T07:23:30;4.30;;;2.27;;
18140;SDS011;9196;49.194;12.526;2022-07-15T07:25:58;2.47;;;1.47;;
18140;SDS011;9196;49.194;12.526;2022-07-15T07:28:25;4.70;;;1.90;;
18140;SDS011;9196;49.194;12.526;2022-07-15T07:30:52;2.50;;;1.50;;
18140;SDS011;9196;49.194;12.526;2022-07-15T07:33:19;2.30;;;1.53;;
18140;SDS011;9196;49.194;12.526;2022-07-15T07:35:48;5.93;;;2.17;;
18140;SDS011;9196;49.194;12.526;2022-07-15T07:38:16;3.43;;;1.70;;
18140;SDS011;9196;49.194;12.526;2022-07-15T07:40:44;5.93;;;1.53;;
18140;SDS011;9196;49.194;12.526;2022-07-15T07:43:13;3.33;;;1.73;;
18140;SDS011;9196;49.194;12.526;2022-07-15T07:45:40;5.83;;;2.43;;
18140;SDS011;9196;49.194;12.526;2022-07-15T07:48:07;10.20;;;2.33;;
18140;SDS011;9196;49.194;12.526;2022-07-15T07:50:35;2.63;;;1.50;;
18140;SDS011;9196;49.194;12.526;2022-07-15T07:53:03;1.70;;;1.60;;
18140;SDS011;9196;49.194;12.526;2022-07-15T07:55:30;7.50;;;1.80;;
18140;SDS011;9196;49.194;12.526;2022-07-15T07:57:58;2.87;;;1.20;;
18140;SDS011;9196;49.194;12.526;2022-07-15T08:00:26;1.70;;;1.70;;
18140;SDS011;9196;49.194;12.526;2022-07-15T08:02:53;5.30;;;1.87;;
18140;SDS011;9196;49.194;12.526;2022-07-15T08:05:21;6.50;;;2.67;;
18140;SDS011;9196;49.194;12.526;2022-07-15T08:07:48;8.83;;;1.77;;
18140;SDS011;9196;49.194;12.526;2022-07-15T08:10:17;9.93;;;1.80;;
18140;SDS011;9196;49.194;12.526;2022-07-15T08:12:45;4.37;;;1.73;;
18140;SDS011;9196;49.194;12.526;2022-07-15T08:15:12;11.37;;;1.50;;
18140;SDS011;9196;49.194;12.526;2022-07-15T08:17:40;1.83;;;1.43;;
18140;SDS011;9196;49.194;12.526;2022-07-15T08:20:08;10.17;;;2.27;;
18140;SDS011;9196;49.194;12.526;2022-07-15T08:22:36;6.27;;;1.60;;
18140;SDS011;9196;49.194;12.526;2022-07-15T08:25:03;3.87;;;1.30;;
18140;SDS011;9196;49.194;12.526;2022-07-15T08:27:32;1.50;;;1.40;;
18140;SDS011;9196;49.194;12.526;2022-07-15T08:29:59;5.80;;;1.77;;
18140;SDS011;9196;49.194;12.526;2022-07-15T08:32:27;6.73;;;2.20;;
18140;SDS011;9196;49.194;12.526;2022-07-15T08:34:55;1.63;;;1.53;;
18140;SDS011;9196;49.194;12.526;2022-07-15T08:37:24;4.17;;;1.43;;
18140;SDS011;9196;49.194;12.526;2022-07-15T08:39:52;5.37;;;1.80;;
18140;SDS011;9196;49.194;12.526;2022-07-15T08:42:19;2.10;;;1.70;;
18140;SDS011;9196;49.194;12.526;2022-07-15T08:44:48;7.13;;;1.87;;
18140;SDS011;9196;49.194;12.526;2022-07-15T08:47:15;2.60;;;2.00;;
18140;SDS011;9196;49.194;12.526;2022-07-15T08:49:43;2.00;;;1.50;;
18140;SDS011;9196;49.194;12.526;2022-07-15T08:52:11;1.83;;;1.60;;
18140;SDS011;9196;49.194;12.526;2022-07-15T08:54:38;2.97;;;1.40;;
18140;SDS011;9196;49.194;12.526;2022-07-15T08:57:05;3.30;;;1.70;;
18140;SDS011;9196;49.194;12.526;2022-07-15T08:59:32;2.60;;;1.53;;
18140;SDS011;9196;49.194;12.526;2022-07-15T09:02:01;8.50;;;1.63;;
18140;SDS011;9196;49.194;12.526;2022-07-15T09:04:28;3.80;;;1.67;;
18140;SDS011;9196;49.194;12.526;2022-07-15T09:06:55;2.10;;;1.40;;
18140;SDS011;9196;49.194;12.526;2022-07-15T09:09:28;2.63;;;1.40;;
18140;SDS011;9196;49.194;12.526;2022-07-15T09:11:57;3.43;;;1.60;;
18140;SDS011;9196;49.194;12.526;2022-07-15T09:14:25;2.27;;;1.40;;
18140;SDS011;9196;49.194;12.526;2022-07-15T09:22:22;1.40;;;1.30;;
18140;SDS011;9196;49.194;12.526;2022-07-15T09:24:49;4.37;;;1.73;;
18140;SDS011;9196;49.194;12.526;2022-07-15T09:27:26;1.73;;;1.40;;
18140;SDS011;9196;49.194;12.526;2022-07-15T09:29:54;1.33;;;1.23;;
18140;SDS011;9196;49.194;12.526;2022-07-15T09:32:38;5.40;;;1.70;;
18140;SDS011;9196;49.194;12.526;2022-07-15T09:35:23;1.67;;;1.57;;
18140;SDS011;9196;49.194;12.526;2022-07-15T09:38:12;1.83;;;1.70;;
18140;SDS011;9196;49.194;12.526;2022-07-15T09:40:46;1.43;;;1.40;;
18140;SDS011;9196;49.194;12.526;2022-07-15T09:43:14;2.30;;;1.73;;
18140;SDS011;9196;49.194;12.526;2022-07-15T09:45:41;1.70;;;1.60;;
18140;SDS011;9196;49.194;12.526;2022-07-15T09:48:08;2.20;;;1.70;;
18140;SDS011;9196;49.194;12.526;2022-07-15T09:50:37;2.07;;;1.73;;
18140;SDS011;9196;49.194;12.526;2022-07-15T09:53:07;2.30;;;1.60;;
18140;SDS011;9196;49.194;12.526;2022-07-15T09:55:38;2.03;;;1.93;;
18140;SDS011;9196;49.194;12.526;2022-07-15T09:58:05;2.13;;;1.67;;
18140;SDS011;9196;49.194;12.526;2022-07-15T10:00:33;1.97;;;1.70;;
18140;SDS011;9196;49.194;12.526;2022-07-15T10:03:00;1.70;;;1.60;;
18140;SDS011;9196;49.194;12.526;2022-07-15T10:05:28;2.60;;;1.67;;
18140;SDS011;9196;49.194;12.526;2022-07-15T10:07:56;2.40;;;1.50;;
18140;SDS011;9196;49.194;12.526;2022-07-15T10:10:24;1.80;;;1.70;;
18140;SDS011;9196;49.194;12.526;2022-07-15T10:12:54;7.67;;;2.10;;
18140;SDS011;9196;49.194;12.526;2022-07-15T10:15:29;1.53;;;1.30;;
18140;SDS011;9196;49.194;12.526;2022-07-15T10:18:07;3.50;;;2.07;;
18140;SDS011;9196;49.194;12.526;2022-07-15T10:20:40;2.07;;;1.87;;
18140;SDS011;9196;49.194;12.526;2022-07-15T10:23:23;1.53;;;1.43;;
18140;SDS011;9196;49.194;12.526;2022-07-15T10:26:00;1.67;;;1.57;;
18140;SDS011;9196;49.194;12.526;2022-07-15T10:31:17;1.90;;;1.80;;
18140;SDS011;9196;49.194;12.526;2022-07-15T10:36:38;1.60;;;1.50;;
18140;SDS011;9196;49.194;12.526;2022-07-15T10:39:05;1.50;;;1.40;;
18140;SDS011;9196;49.194;12.526;2022-07-15T10:41:47;1.97;;;1.77;;
18140;SDS011;9196;49.194;12.526;2022-07-15T10:44:14;1.70;;;1.40;;
18140;SDS011;9196;49.194;12.526;2022-07-15T10:46:43;2.97;;;1.80;;
18140;SDS011;9196;49.194;12.526;2022-07-15T10:49:29;2.40;;;2.20;;
18140;SDS011;9196;49.194;12.526;2022-07-15T10:52:10;3.67;;;1.60;;
18140;SDS011;9196;49.194;12.526;2022-07-15T10:54:39;2.53;;;1.43;;
18140;SDS011;9196;49.194;12.526;2022-07-15T10:57:07;1.90;;;1.63;;
18140;SDS011;9196;49.194;12.526;2022-07-15T10:59:35;1.50;;;1.40;;
18140;SDS011;9196;49.194;12.526;2022-07-15T11:02:14;2.23;;;2.00;;
18140;SDS011;9196;49.194;12.526;2022-07-15T11:04:42;2.30;;;1.70;;
18140;SDS011;9196;49.194;12.526;2022-07-15T11:07:19;1.50;;;1.40;;
18140;SDS011;9196;49.194;12.526;2022-07-15T11:09:47;2.40;;;2.00;;
18140;SDS011;9196;49.194;12.526;2022-07-15T11:12:16;2.10;;;1.80;;
18140;SDS011;9196;49.194;12.526;2022-07-15T11:14:44;1.60;;;1.50;;
18140;SDS011;9196;49.194;12.526;2022-07-15T11:17:14;2.57;;;1.67;;
18140;SDS011;9196;49.194;12.526;2022-07-15T11:19:44;1.60;;;1.50;;
18140;SDS011;9196;49.194;12.526;2022-07-15T11:22:12;11.03;;;1.77;;
18140;SDS011;9196;49.194;12.526;2022-07-15T11:24:39;1.70;;;1.60;;
18140;SDS011;9196;49.194;12.526;2022-07-15T11:27:06;4.10;;;1.63;;
18140;SDS011;9196;49.194;12.526;2022-07-15T11:29:44;1.60;;;1.50;;
18140;SDS011;9196;49.194;12.526;2022-07-15T11:32:11;1.90;;;1.60;;
18140;SDS011;9196;49.194;12.526;2022-07-15T11:34:40;3.50;;;2.17;;
18140;SDS011;9196;49.194;12.526;2022-07-15T11:37:08;5.07;;;2.23;;
18140;SDS011;9196;49.194;12.526;2022-07-15T11:39:36;1.80;;;1.70;;
18140;SDS011;9196;49.194;12.526;2022-07-15T11:42:03;1.70;;;1.60;;
18140;SDS011;9196;49.194;12.526;2022-07-15T11:44:49;2.43;;;2.23;;
18140;SDS011;9196;49.194;12.526;2022-07-15T11:47:17;2.60;;;1.70;;
18140;SDS011;9196;49.194;12.526;2022-07-15T11:49:45;1.83;;;1.73;;
18140;SDS011;9196;49.194;12.526;2022-07-15T11:52:23;4.20;;;1.70;;
18140;SDS011;9196;49.194;12.526;2022-07-15T11:54:51;2.40;;;1.70;;
18140;SDS011;9196;49.194;12.526;2022-07-15T11:57:18;1.73;;;1.63;;
18140;SDS011;9196;49.194;12.526;2022-07-15T11:59:50;2.77;;;1.93;;
18140;SDS011;9196;49.194;12.526;2022-07-15T12:02:17;1.93;;;1.70;;
18140;SDS011;9196;49.194;12.526;2022-07-15T12:04:46;5.40;;;2.00;;
18140;SDS011;9196;49.194;12.526;2022-07-15T12:07:13;1.80;;;1.70;;
18140;SDS011;9196;49.194;12.526;2022-07-15T12:09:40;2.20;;;1.83;;
18140;SDS011;9196;49.194;12.526;2022-07-15T12:12:07;1.70;;;1.60;;
18140;SDS011;9196;49.194;12.526;2022-07-15T12:14:35;3.27;;;2.20;;
18140;SDS011;9196;49.194;12.526;2022-07-15T12:17:02;1.93;;;1.77;;
18140;SDS011;9196;49.194;12.526;2022-07-15T12:19:30;3.33;;;1.80;;
18140;SDS011;9196;49.194;12.526;2022-07-15T12:22:00;3.20;;;1.70;;
18140;SDS011;9196;49.194;12.526;2022-07-15T12:24:36;3.67;;;1.83;;
18140;SDS011;9196;49.194;12.526;2022-07-15T12:27:03;3.37;;;1.80;;
18140;SDS011;9196;49.194;12.526;2022-07-15T12:29:31;1.80;;;1.70;;
18140;SDS011;9196;49.194;12.526;2022-07-15T12:31:59;1.93;;;1.83;;
18140;SDS011;9196;49.194;12.526;2022-07-15T12:37:09;1.80;;;1.70;;
18140;SDS011;9196;49.194;12.526;2022-07-15T12:42:19;2.17;;;1.60;;
18140;SDS011;9196;49.194;12.526;2022-07-15T12:44:46;2.03;;;1.83;;
18140;SDS011;9196;49.194;12.526;2022-07-15T12:47:15;2.40;;;1.83;;
18140;SDS011;9196;49.194;12.526;2022-07-15T12:49:45;2.97;;;1.87;;
18140;SDS011;9196;49.194;12.526;2022-07-15T12:52:18;1.63;;;1.53;;
18140;SDS011;9196;49.194;12.526;2022-07-15T12:54:46;3.47;;;1.67;;
18140;SDS011;9196;49.194;12.526;2022-07-15T12:57:20;2.47;;;2.17;;
18140;SDS011;9196;49.194;12.526;2022-07-15T12:59:48;15.20;;;2.30;;
18140;SDS011;9196;49.194;12.526;2022-07-15T13:02:16;4.63;;;1.77;;
18140;SDS011;9196;49.194;12.526;2022-07-15T13:04:43;1.83;;;1.60;;
18140;SDS011;9196;49.194;12.526;2022-07-15T13:07:10;2.50;;;1.90;;
18140;SDS011;9196;49.194;12.526;2022-07-15T13:09:38;2.40;;;1.83;;
18140;SDS011;9196;49.194;12.526;2022-07-15T13:12:07;2.73;;;2.10;;
18140;SDS011;9196;49.194;12.526;2022-07-15T13:14:34;3.20;;;1.60;;
18140;SDS011;9196;49.194;12.526;2022-07-15T13:17:01;1.93;;;1.73;;
18140;SDS011;9196;49.194;12.526;2022-07-15T13:19:28;6.40;;;1.63;;
18140;SDS011;9196;49.194;12.526;2022-07-15T13:21:56;1.50;;;1.40;;
18140;SDS011;9196;49.194;12.526;2022-07-15T13:24:23;2.07;;;1.80;;
18140;SDS011;9196;49.194;12.526;2022-07-15T13:26:51;3.00;;;2.03;;
18140;SDS011;9196;49.194;12.526;2022-07-15T13:29:18;4.40;;;1.83;;
18140;SDS011;9196;49.194;12.526;2022-07-15T13:31:46;1.70;;;1.60;;
18140;SDS011;9196;49.194;12.526;2022-07-15T13:34:13;2.20;;;2.10;;
18140;SDS011;9196;49.194;12.526;2022-07-15T13:36:40;1.60;;;1.50;;
18140;SDS011;9196;49.194;12.526;2022-07-15T13:39:07;3.03;;;2.20;;
18140;SDS011;9196;49.194;12.526;2022-07-15T13:41:34;2.40;;;1.97;;
18140;SDS011;9196;49.194;12.526;2022-07-15T13:44:03;6.87;;;1.90;;
18140;SDS011;9196;49.194;12.526;2022-07-15T13:46:30;6.60;;;2.00;;
18140;SDS011;9196;49.194;12.526;2022-07-15T13:48:57;1.70;;;1.60;;
18140;SDS011;9196;49.194;12.526;2022-07-15T13:51:24;1.80;;;1.67;;
18140;SDS011;9196;49.194;12.526;2022-07-15T13:53:51;2.00;;;1.70;;
18140;SDS011;9196;49.194;12.526;2022-07-15T13:56:19;1.77;;;1.67;;
18140;SDS011;9196;49.194;12.526;2022-07-15T13:58:46;3.77;;;1.90;;
18140;SDS011;9196;49.194;12.526;2022-07-15T14:01:15;2.07;;;1.87;;
18140;SDS011;9196;49.194;12.526;2022-07-15T14:03:43;3.70;;;2.13;;
18140;SDS011;9196;49.194;12.526;2022-07-15T14:06:10;4.10;;;1.97;;
18140;SDS011;9196;49.194;12.526;2022-07-15T14:08:37;1.80;;;1.70;;
18140;SDS011;9196;49.194;12.526;2022-07-15T14:11:04;1.70;;;1.63;;
18140;SDS011;9196;49.194;12.526;2022-07-15T14:13:31;2.87;;;2.23;;
18140;SDS011;9196;49.194;12.526;2022-07-15T14:15:59;2.20;;;1.80;;
18140;SDS011;9196;49.194;12.526;2022-07-15T14:18:27;2.17;;;1.93;;
18140;SDS011;9196;49.194;12.526;2022-07-15T14:21:11;3.23;;;2.10;;
18140;SDS011;9196;49.194;12.526;2022-07-15T14:23:38;2.17;;;1.77;;
18140;SDS011;9196;49.194;12.526;2022-07-15T14:26:05;1.90;;;1.80;;
18140;SDS011;9196;49.194;12.526;2022-07-15T14:28:32;1.80;;;1.70;;
18140;SDS011;9196;49.194;12.526;2022-07-15T14:31:00;3.17;;;2.43;;
18140;SDS011;9196;49.194;12.526;2022-07-15T14:33:28;2.33;;;1.90;;
18140;SDS011;9196;49.194;12.526;2022-07-15T14:35:55;1.73;;;1.63;;
18140;SDS011;9196;49.194;12.526;2022-07-15T14:40:50;3.83;;;1.93;;
18140;SDS011;9196;49.194;12.526;2022-07-15T14:43:17;2.70;;;2.07;;
18140;SDS011;9196;49.194;12.526;2022-07-15T14:45:44;2.87;;;2.00;;
18140;SDS011;9196;49.194;12.526;2022-07-15T14:48:11;2.83;;;1.70;;
18140;SDS011;9196;49.194;12.526;2022-07-15T14:50:40;3.40;;;1.73;;
18140;SDS011;9196;49.194;12.526;2022-07-15T14:53:07;3.17;;;2.10;;
18140;SDS011;9196;49.194;12.526;2022-07-15T14:55:34;1.90;;;1.40;;
18140;SDS011;9196;49.194;12.526;2022-07-15T14:58:01;1.70;;;1.60;;
18140;SDS011;9196;49.194;12.526;2022-07-15T15:00:29;2.00;;;1.80;;
18140;SDS011;9196;49.194;12.526;2022-07-15T15:02:56;3.37;;;1.70;;
18140;SDS011;9196;49.194;12.526;2022-07-15T15:05:24;1.90;;;1.80;;
18140;SDS011;9196;49.194;12.526;2022-07-15T15:07:52;2.00;;;1.70;;
18140;SDS011;9196;49.194;12.526;2022-07-15T15:10:19;3.23;;;2.03;;
18140;SDS011;9196;49.194;12.526;2022-07-15T15:12:46;3.50;;;1.87;;
18140;SDS011;9196;49.194;12.526;2022-07-15T15:15:14;1.77;;;1.67;;